createdAt,value
2022-10-11T00:01:05.150Z,27.19
2022-10-11T00:03:31.332Z,27.18
2022-10-11T00:05:57.677Z,27.18
2022-10-11T00:08:24.014Z,27.00
2022-10-11T00:10:50.353Z,27.12
2022-10-11T00:13:16.689Z,27.12
2022-10-11T00:15:43.028Z,27.20
2022-10-11T00:18:09.364Z,27.17
2022-10-11T00:20:35.706Z,27.19
2022-10-11T00:23:02.041Z,27.07
2022-10-11T00:25:28.392Z,27.07
2022-10-11T00:27:54.718Z,27.14
2022-10-11T00:30:21.062Z,27.15
2022-10-11T00:32:47.396Z,27.17
2022-10-11T00:35:13.759Z,27.17
2022-10-11T00:37:40.090Z,27.16
2022-10-11T00:40:06.442Z,27.08
2022-10-11T00:42:32.779Z,27.13
2022-10-11T00:44:59.114Z,27.13
2022-10-11T00:47:25.450Z,27.13
2022-10-11T00:49:51.822Z,27.13
2022-10-11T00:52:18.159Z,27.06
2022-10-11T00:54:44.492Z,27.12
2022-10-11T00:57:10.825Z,27.12
2022-10-11T00:59:37.161Z,27.11
2022-10-11T01:02:03.499Z,27.03
2022-10-11T01:04:29.853Z,27.03
2022-10-11T01:06:56.207Z,27.11
2022-10-11T01:09:22.535Z,27.10
2022-10-11T01:11:48.869Z,27.12
2022-10-11T01:14:15.214Z,27.10
2022-10-11T01:16:41.555Z,27.02
2022-10-11T01:19:07.896Z,27.10
2022-10-11T01:21:34.263Z,27.02
2022-10-11T01:24:04.670Z,27.09
2022-10-11T01:26:26.972Z,27.09
2022-10-11T01:28:53.374Z,27.10
2022-10-11T01:31:19.642Z,27.09
2022-10-11T01:33:45.984Z,27.09
2022-10-11T01:36:12.326Z,27.09
2022-10-11T01:38:38.667Z,27.08
2022-10-11T01:41:05.006Z,27.07
2022-10-11T01:43:31.389Z,27.06
2022-10-11T01:45:57.723Z,27.07
2022-10-11T01:48:24.071Z,27.07
2022-10-11T01:50:50.406Z,27.05
2022-10-11T01:53:16.750Z,27.06
2022-10-11T01:55:43.081Z,27.07
2022-10-11T01:58:09.431Z,27.07
2022-10-11T02:00:35.764Z,27.05
2022-10-11T02:03:02.103Z,26.96
2022-10-11T02:05:28.469Z,27.05
2022-10-11T02:07:54.811Z,27.01
2022-10-11T02:10:21.147Z,27.01
2022-10-11T02:12:47.508Z,27.02
2022-10-11T02:15:13.843Z,27.01
2022-10-11T02:17:40.192Z,27.01
2022-10-11T02:20:06.527Z,27.00
2022-10-11T02:22:32.864Z,27.00
2022-10-11T02:24:59.198Z,27.02
2022-10-11T02:27:25.555Z,27.00
2022-10-11T02:29:51.872Z,27.01
2022-10-11T02:32:18.320Z,27.00
2022-10-11T02:34:44.666Z,27.00
2022-10-11T02:37:11.008Z,26.98
2022-10-11T02:39:37.394Z,27.00
2022-10-11T02:42:03.739Z,26.96
2022-10-11T02:44:30.071Z,26.96
2022-10-11T02:46:56.422Z,26.97
2022-10-11T02:49:22.758Z,26.96
2022-10-11T02:51:49.104Z,26.96
2022-10-11T02:54:15.435Z,26.92
2022-10-11T02:56:41.767Z,26.90
2022-10-11T02:59:08.106Z,26.91
2022-10-11T03:01:34.517Z,26.90
2022-10-11T03:04:00.787Z,26.78
2022-10-11T03:06:27.143Z,26.83
2022-10-11T03:08:53.468Z,26.87
2022-10-11T03:11:19.839Z,26.89
2022-10-11T03:13:46.168Z,26.90
2022-10-11T03:16:12.805Z,26.86
2022-10-11T03:18:38.842Z,26.86
2022-10-11T03:21:05.210Z,26.87
2022-10-11T03:23:31.571Z,26.78
2022-10-11T03:25:57.918Z,26.88
2022-10-11T03:28:24.309Z,26.89
2022-10-11T03:30:50.592Z,26.80
2022-10-11T03:33:16.928Z,26.88
2022-10-11T03:35:43.272Z,26.88
2022-10-11T03:38:12.904Z,26.86
2022-10-11T03:40:35.962Z,26.76
2022-10-11T03:43:02.292Z,26.84
2022-10-11T03:45:28.664Z,26.76
2022-10-11T03:47:55.002Z,26.74
2022-10-11T03:50:21.342Z,26.80
2022-10-11T03:52:47.672Z,26.80
2022-10-11T03:55:14.017Z,26.79
2022-10-11T03:57:40.354Z,26.79
2022-10-11T04:00:06.706Z,26.81
2022-10-11T04:02:38.292Z,26.82
2022-10-11T04:04:59.382Z,26.82
2022-10-11T04:07:25.712Z,26.83
2022-10-11T04:09:52.064Z,26.82
2022-10-11T04:12:18.395Z,26.73
2022-10-11T04:14:44.740Z,26.82
2022-10-11T04:19:53.349Z,26.79
2022-10-11T04:22:19.683Z,26.82
2022-10-11T04:24:46.017Z,26.73
2022-10-11T04:27:12.362Z,26.73
2022-10-11T04:29:38.717Z,26.86
2022-10-11T04:32:05.047Z,26.78
2022-10-11T04:34:31.381Z,26.79
2022-10-11T04:36:57.730Z,26.79
2022-10-11T04:39:24.124Z,26.83
2022-10-11T04:41:50.500Z,26.62
2022-10-11T04:44:16.841Z,26.62
2022-10-11T04:46:43.176Z,26.78
2022-10-11T04:49:09.515Z,26.80
2022-10-11T04:51:35.869Z,26.78
2022-10-11T04:54:02.237Z,26.76
2022-10-11T04:56:28.574Z,26.82
2022-10-11T04:58:54.914Z,26.82
2022-10-11T05:01:21.261Z,26.90
2022-10-11T05:03:47.593Z,26.93
2022-10-11T05:06:14.377Z,26.99
2022-10-11T05:08:40.278Z,27.01
2022-10-11T05:11:06.622Z,27.17
2022-10-11T05:13:33.045Z,27.17
2022-10-11T05:15:59.481Z,27.17
2022-10-11T05:18:25.792Z,27.24
2022-10-11T05:20:52.123Z,27.28
2022-10-11T05:23:18.459Z,27.25
2022-10-11T05:25:44.834Z,27.41
2022-10-11T05:28:11.215Z,26.75
2022-10-11T05:30:39.950Z,25.07
2022-10-11T05:33:06.282Z,25.07
2022-10-11T05:35:32.624Z,24.82
2022-10-11T05:37:58.956Z,24.83
2022-10-11T05:40:25.297Z,24.73
2022-10-11T05:42:51.626Z,24.70
2022-10-11T05:45:17.965Z,24.70
2022-10-11T05:47:44.302Z,24.82
2022-10-11T05:50:10.645Z,24.70
2022-10-11T05:52:36.990Z,24.85
2022-10-11T05:55:03.331Z,24.86
2022-10-11T05:57:31.750Z,24.80
2022-10-11T05:59:56.030Z,24.83
2022-10-11T06:02:22.370Z,24.85
2022-10-11T06:04:48.734Z,24.88
2022-10-11T06:07:15.068Z,24.85
2022-10-11T06:09:41.451Z,24.91
2022-10-11T06:12:07.786Z,24.91
2022-10-11T06:14:34.127Z,25.12
2022-10-11T06:17:00.504Z,24.83
2022-10-11T06:19:26.838Z,24.86
2022-10-11T06:21:53.187Z,24.87
2022-10-11T06:24:19.566Z,24.86
2022-10-11T06:26:45.920Z,24.77
2022-10-11T06:29:12.261Z,24.87
2022-10-11T06:31:38.657Z,24.79
2022-10-11T06:34:04.992Z,24.98
2022-10-11T06:36:31.377Z,24.88
2022-10-11T06:38:57.730Z,24.98
2022-10-11T06:41:24.066Z,24.99
2022-10-11T06:43:50.406Z,24.99
2022-10-11T06:46:16.762Z,24.94
2022-10-11T06:48:43.141Z,24.94
2022-10-11T06:51:09.478Z,24.94
2022-10-11T06:53:35.830Z,24.90
2022-10-11T06:56:02.633Z,24.90
2022-10-11T06:58:28.598Z,25.01
2022-10-11T07:00:55.107Z,25.01
2022-10-11T07:03:21.411Z,25.13
2022-10-11T07:05:47.779Z,25.10
2022-10-11T07:08:14.131Z,25.06
2022-10-11T07:10:40.475Z,25.13
2022-10-11T07:13:06.810Z,25.24
2022-10-11T07:15:33.184Z,25.38
2022-10-11T07:17:59.539Z,25.38
2022-10-11T07:20:25.883Z,25.25
2022-10-11T07:22:52.224Z,25.25
2022-10-11T07:25:18.566Z,25.40
2022-10-11T07:27:44.945Z,25.37
2022-10-11T07:30:11.287Z,25.25
2022-10-11T07:32:37.624Z,25.84
2022-10-11T07:35:03.975Z,25.58
2022-10-11T07:37:30.336Z,25.51
2022-10-11T07:39:56.788Z,25.51
2022-10-11T07:42:23.105Z,25.49
2022-10-11T07:44:49.471Z,25.76
2022-10-11T07:47:15.828Z,25.48
2022-10-11T07:49:42.255Z,25.86
2022-10-11T07:52:08.616Z,25.82
2022-10-11T07:54:35.074Z,25.71
2022-10-11T07:57:01.420Z,25.76
2022-10-11T07:59:27.847Z,25.57
2022-10-11T08:01:54.262Z,25.68
2022-10-11T08:04:20.585Z,25.61
2022-10-11T08:06:51.113Z,25.66
2022-10-11T08:09:13.316Z,25.57
2022-10-11T08:11:39.662Z,25.57
2022-10-11T08:14:06.025Z,25.46
2022-10-11T08:16:32.397Z,25.50
2022-10-11T08:18:58.747Z,25.50
2022-10-11T08:21:25.084Z,25.50
2022-10-11T08:23:51.482Z,25.41
2022-10-11T08:26:17.857Z,25.46
2022-10-11T08:28:44.250Z,25.49
2022-10-11T08:31:10.571Z,25.46
2022-10-11T08:33:36.962Z,25.44
2022-10-11T08:36:03.904Z,25.48
2022-10-11T08:38:29.721Z,25.42
2022-10-11T08:40:56.042Z,25.28
2022-10-11T08:43:22.396Z,25.36
2022-10-11T08:45:48.729Z,25.42
2022-10-11T08:48:15.079Z,25.38
2022-10-11T08:50:41.435Z,25.40
2022-10-11T08:53:07.779Z,25.46
2022-10-11T08:55:34.116Z,25.46
2022-10-11T08:58:00.459Z,25.30
2022-10-11T09:00:26.800Z,25.34
2022-10-11T09:03:07.894Z,25.43
2022-10-11T09:05:19.478Z,25.54
2022-10-11T09:07:45.821Z,25.60
2022-10-11T09:10:12.147Z,25.60
2022-10-11T09:12:40.815Z,25.57
2022-10-11T09:15:04.870Z,25.56
2022-10-11T09:17:31.177Z,25.56
2022-10-11T09:19:57.519Z,25.58
2022-10-11T09:22:28.120Z,25.58
2022-10-11T09:24:50.204Z,25.42
2022-10-11T09:27:16.556Z,25.57
2022-10-11T09:29:42.911Z,25.62
2022-10-11T09:32:09.259Z,25.68
2022-10-11T09:34:35.633Z,25.68
2022-10-11T09:37:01.954Z,25.76
2022-10-11T09:39:28.278Z,25.78
2022-10-11T09:41:54.669Z,25.72
2022-10-11T09:44:21.005Z,25.72
2022-10-11T09:46:47.355Z,25.56
2022-10-11T09:49:13.749Z,25.62
2022-10-11T09:51:40.097Z,25.81
2022-10-11T09:54:06.447Z,25.71
2022-10-11T09:56:32.793Z,25.81
2022-10-11T09:58:59.133Z,25.78
2022-10-11T10:01:25.552Z,25.82
2022-10-11T10:03:51.823Z,25.82
2022-10-11T10:06:18.170Z,25.81
2022-10-11T10:08:44.513Z,26.00
2022-10-11T10:11:10.857Z,26.17
2022-10-11T10:13:37.237Z,26.12
2022-10-11T10:16:03.918Z,26.10
2022-10-11T10:18:29.918Z,26.08
2022-10-11T10:20:56.394Z,25.97
2022-10-11T10:23:22.716Z,26.05
2022-10-11T10:25:49.071Z,25.92
2022-10-11T10:28:15.440Z,25.84
2022-10-11T10:30:41.740Z,26.05
2022-10-11T10:33:08.075Z,25.95
2022-10-11T10:35:34.414Z,25.95
2022-10-11T10:38:00.761Z,25.89
2022-10-11T10:40:27.089Z,25.88
2022-10-11T10:42:53.463Z,25.79
2022-10-11T10:45:21.802Z,25.87
2022-10-11T10:47:46.141Z,25.85
2022-10-11T10:50:12.490Z,25.85
2022-10-11T10:52:38.873Z,25.86
2022-10-11T10:55:05.220Z,25.86
2022-10-11T10:57:31.552Z,25.86
2022-10-11T10:59:57.922Z,25.81
2022-10-11T11:02:41.350Z,25.85
2022-10-11T11:04:50.678Z,25.88
2022-10-11T11:07:16.973Z,25.89
2022-10-11T11:09:43.311Z,25.89
2022-10-11T11:12:09.643Z,25.90
2022-10-11T11:14:35.983Z,25.79
2022-10-11T11:17:02.320Z,25.81
2022-10-11T11:19:28.674Z,25.80
2022-10-11T11:21:55.009Z,25.87
2022-10-11T11:24:21.349Z,25.74
2022-10-11T11:26:47.689Z,25.74
2022-10-11T11:29:14.077Z,25.65
2022-10-11T11:31:40.718Z,25.82
2022-10-11T11:34:07.016Z,25.79
2022-10-11T11:36:33.390Z,25.83
2022-10-11T11:38:59.732Z,25.75
2022-10-11T11:41:26.122Z,25.59
2022-10-11T11:43:52.468Z,25.59
2022-10-11T11:46:18.805Z,25.63
2022-10-11T11:48:45.153Z,25.80
2022-10-11T11:51:11.494Z,25.77
2022-10-11T11:53:37.841Z,25.77
2022-10-11T11:56:04.179Z,25.89
2022-10-11T11:58:30.538Z,25.94
2022-10-11T12:00:56.880Z,25.81
2022-10-11T12:03:23.254Z,25.99
2022-10-11T12:05:49.656Z,25.89
2022-10-11T12:08:15.998Z,26.03
2022-10-11T12:10:42.335Z,26.04
2022-10-11T12:13:08.698Z,26.26
2022-10-11T12:15:35.058Z,26.11
2022-10-11T12:18:01.400Z,26.31
2022-10-11T12:20:28.961Z,26.31
2022-10-11T12:22:54.133Z,26.32
2022-10-11T12:25:21.447Z,26.26
2022-10-11T12:27:46.840Z,25.95
2022-10-11T12:30:13.184Z,25.95
2022-10-11T12:32:39.535Z,25.91
2022-10-11T12:35:05.912Z,25.98
2022-10-11T12:37:32.250Z,25.88
2022-10-11T12:39:58.641Z,25.99
2022-10-11T12:42:24.975Z,25.70
2022-10-11T12:44:51.347Z,25.69
2022-10-11T12:47:17.688Z,25.75
2022-10-11T12:49:44.060Z,25.74
2022-10-11T12:52:10.433Z,25.71
2022-10-11T12:54:37.460Z,25.72
2022-10-11T12:57:03.193Z,25.56
2022-10-11T12:59:29.522Z,25.63
2022-10-11T13:01:55.862Z,25.65
2022-10-11T13:04:22.206Z,25.79
2022-10-11T13:06:48.544Z,25.76
2022-10-11T13:09:14.885Z,25.77
2022-10-11T13:11:41.224Z,25.61
2022-10-11T13:14:07.637Z,25.63
2022-10-11T13:16:33.973Z,25.63
2022-10-11T13:19:00.326Z,25.70
2022-10-11T13:21:26.665Z,25.63
2022-10-11T13:23:52.994Z,25.71
2022-10-11T13:26:19.386Z,25.69
2022-10-11T13:28:45.797Z,25.68
2022-10-11T13:31:12.083Z,25.68
2022-10-11T13:33:38.428Z,25.66
2022-10-11T13:36:05.002Z,25.66
2022-10-11T13:38:31.119Z,25.61
2022-10-11T13:40:57.468Z,25.66
2022-10-11T13:43:23.807Z,25.54
2022-10-11T13:45:50.145Z,25.64
2022-10-11T13:48:16.489Z,25.61
2022-10-11T13:50:42.826Z,25.61
2022-10-11T13:53:09.195Z,25.62
2022-10-11T13:55:35.546Z,25.60
2022-10-11T13:58:01.907Z,25.60
2022-10-11T14:00:28.255Z,25.62
2022-10-11T14:02:54.597Z,25.55
2022-10-11T14:05:20.969Z,25.48
2022-10-11T14:07:47.393Z,25.54
2022-10-11T14:10:13.744Z,25.55
2022-10-11T14:12:40.091Z,25.53
2022-10-11T14:15:06.458Z,25.62
2022-10-11T14:17:32.835Z,25.59
2022-10-11T14:20:03.978Z,25.57
2022-10-11T14:22:25.555Z,25.51
2022-10-11T14:24:51.896Z,25.57
2022-10-11T14:27:18.235Z,25.55
2022-10-11T14:30:00.310Z,25.55
2022-10-11T14:32:10.928Z,25.42
2022-10-11T14:34:37.313Z,25.56
2022-10-11T14:37:03.637Z,25.54
2022-10-11T14:39:30.056Z,25.54
2022-10-11T14:41:56.390Z,25.55
2022-10-11T14:44:22.759Z,25.53
2022-10-11T14:46:49.107Z,25.54
2022-10-11T14:49:15.446Z,25.42
2022-10-11T14:51:41.814Z,25.47
2022-10-11T14:54:08.168Z,25.49
2022-10-11T14:56:34.503Z,25.50
2022-10-11T14:59:00.879Z,25.51
2022-10-11T15:01:27.267Z,25.45
2022-10-11T15:03:53.722Z,25.47
2022-10-11T15:06:20.066Z,25.46
2022-10-11T15:08:46.400Z,25.32
2022-10-11T15:11:12.741Z,25.43
2022-10-11T15:13:39.088Z,25.40
2022-10-11T15:16:05.648Z,25.23
2022-10-11T15:18:31.812Z,25.28
2022-10-11T15:20:58.153Z,25.37
2022-10-11T15:23:24.488Z,25.37
2022-10-11T15:25:50.823Z,25.19
2022-10-11T15:28:17.213Z,25.33
2022-10-11T15:30:43.538Z,25.36
2022-10-11T15:33:09.887Z,25.36
2022-10-11T15:35:36.233Z,25.20
2022-10-11T15:38:02.578Z,25.20
2022-10-11T15:40:28.904Z,25.30
2022-10-11T15:42:55.248Z,25.29
2022-10-11T15:45:21.588Z,25.29
2022-10-11T15:47:47.924Z,25.33
2022-10-11T15:50:14.279Z,25.32
2022-10-11T15:52:40.616Z,25.30
2022-10-11T15:55:06.951Z,25.30
2022-10-11T15:57:33.298Z,25.23
2022-10-11T15:59:59.698Z,25.23
2022-10-11T16:02:26.017Z,25.23
2022-10-11T16:04:52.341Z,25.13
2022-10-11T16:07:18.698Z,25.13
2022-10-11T16:09:45.025Z,25.20
2022-10-11T16:12:11.365Z,25.10
2022-10-11T16:14:37.701Z,25.20
2022-10-11T16:17:04.053Z,25.17
2022-10-11T16:19:30.393Z,25.17
2022-10-11T16:21:56.740Z,25.14
2022-10-11T16:24:23.065Z,25.14
2022-10-11T16:26:49.410Z,25.12
2022-10-11T16:29:15.739Z,25.12
2022-10-11T16:31:42.104Z,25.10
2022-10-11T16:34:08.465Z,25.03
2022-10-11T16:36:34.820Z,25.02
2022-10-11T16:39:01.152Z,25.02
2022-10-11T16:41:27.490Z,25.07
2022-10-11T16:43:53.837Z,25.07
2022-10-11T16:46:20.181Z,25.06
2022-10-11T16:48:46.521Z,25.07
2022-10-11T16:51:12.868Z,25.06
2022-10-11T16:53:39.202Z,25.01
2022-10-11T16:56:05.867Z,25.01
2022-10-11T16:58:31.907Z,24.95
2022-10-11T17:00:58.314Z,24.94
2022-10-11T17:03:24.585Z,25.01
2022-10-11T17:05:50.938Z,25.01
2022-10-11T17:08:17.269Z,25.01
2022-10-11T17:10:43.603Z,24.91
2022-10-11T17:13:09.938Z,24.91
2022-10-11T17:15:36.276Z,24.90
2022-10-11T17:18:02.615Z,24.99
2022-10-11T17:20:28.980Z,24.89
2022-10-11T17:22:55.317Z,24.97
2022-10-11T17:25:21.670Z,24.97
2022-10-11T17:27:48.018Z,24.97
2022-10-11T17:30:14.350Z,24.96
2022-10-11T17:32:40.693Z,24.95
2022-10-11T17:35:07.028Z,24.94
2022-10-11T17:37:33.383Z,24.92
2022-10-11T17:39:59.731Z,24.92
2022-10-11T17:42:26.072Z,24.91
2022-10-11T17:44:52.468Z,24.91
2022-10-11T17:47:18.831Z,24.82
2022-10-11T17:49:45.161Z,24.89
2022-10-11T17:52:11.592Z,24.89
2022-10-11T17:54:37.926Z,24.89
2022-10-11T17:57:04.275Z,24.83
2022-10-11T17:59:30.609Z,24.87
2022-10-11T18:01:56.955Z,24.87
2022-10-11T18:04:23.287Z,24.86
2022-10-11T18:06:49.629Z,24.73
2022-10-11T18:09:15.988Z,24.82
2022-10-11T18:11:42.331Z,24.85
2022-10-11T18:14:08.678Z,24.81
2022-10-11T18:16:35.010Z,24.81
2022-10-11T18:19:01.381Z,24.79
2022-10-11T18:21:31.329Z,24.81
2022-10-11T18:23:54.077Z,24.74
2022-10-11T18:26:20.420Z,24.74
2022-10-11T18:28:46.973Z,24.77
2022-10-11T18:31:14.046Z,24.78
2022-10-11T18:33:39.494Z,24.78
2022-10-11T18:36:05.862Z,24.78
2022-10-11T18:38:32.212Z,24.77
2022-10-11T18:40:58.598Z,24.77
2022-10-11T18:43:24.942Z,24.75
2022-10-11T18:45:51.281Z,24.69
2022-10-11T18:48:17.617Z,24.69
2022-10-11T18:50:43.969Z,24.78
2022-10-11T18:53:10.302Z,24.78
2022-10-11T18:55:36.643Z,24.76
2022-10-11T18:58:02.979Z,24.76
2022-10-11T19:00:40.765Z,24.71
2022-10-11T19:02:55.690Z,24.71
2022-10-11T19:05:22.036Z,24.66
2022-10-11T19:07:48.365Z,24.66
2022-10-11T19:10:14.742Z,24.71
2022-10-11T19:12:41.082Z,24.73
2022-10-11T19:15:07.448Z,24.71
2022-10-11T19:17:33.780Z,24.71
2022-10-11T19:20:00.125Z,24.71
2022-10-11T19:22:26.459Z,24.71
2022-10-11T19:24:52.806Z,24.71
2022-10-11T19:27:19.136Z,24.68
2022-10-11T19:29:45.487Z,24.69
2022-10-11T19:32:11.838Z,24.67
2022-10-11T19:34:38.178Z,24.67
2022-10-11T19:37:04.548Z,24.69
2022-10-11T19:39:30.890Z,24.65
2022-10-11T19:41:57.231Z,24.69
2022-10-11T19:44:23.634Z,24.66
2022-10-11T19:46:52.377Z,24.58
2022-10-11T19:49:16.320Z,24.58
2022-10-11T19:51:42.666Z,24.63
2022-10-11T19:54:09.008Z,24.64
2022-10-11T19:56:36.563Z,24.65
2022-10-11T19:59:01.730Z,24.64
2022-10-11T20:01:28.142Z,24.62
2022-10-11T20:03:54.427Z,24.64
2022-10-11T20:06:20.759Z,24.65
2022-10-11T20:08:52.750Z,24.63
2022-10-11T20:11:13.440Z,24.63
2022-10-11T20:13:39.801Z,24.53
2022-10-11T20:16:06.141Z,24.53
2022-10-11T20:18:32.477Z,24.63
2022-10-11T20:20:58.826Z,24.63
2022-10-11T20:23:27.629Z,24.63
2022-10-11T20:25:51.500Z,24.62
2022-10-11T20:28:17.899Z,24.54
2022-10-11T20:30:44.205Z,24.54
2022-10-11T20:33:10.550Z,24.61
2022-10-11T20:35:36.917Z,24.61
2022-10-11T20:38:03.253Z,24.62
2022-10-11T20:40:29.593Z,24.62
2022-10-11T20:42:55.930Z,24.62
2022-10-11T20:45:22.266Z,24.62
2022-10-11T20:47:48.605Z,24.60
2022-10-11T20:50:16.669Z,24.60
2022-10-11T20:52:41.305Z,24.60
2022-10-11T20:55:07.638Z,24.59
2022-10-11T20:57:34.242Z,24.59
2022-10-11T21:00:00.360Z,24.59
2022-10-11T21:02:26.698Z,24.59
2022-10-11T21:04:53.042Z,24.59
2022-10-11T21:07:19.389Z,24.60
2022-10-11T21:09:45.722Z,24.58
2022-10-11T21:12:12.076Z,24.48
2022-10-11T21:14:38.396Z,24.57
2022-10-11T21:17:04.735Z,24.58
2022-10-11T21:19:31.078Z,24.56
2022-10-11T21:21:57.429Z,24.57
2022-10-11T21:24:23.769Z,24.57
2022-10-11T21:26:50.112Z,24.56
2022-10-11T21:29:16.447Z,24.47
2022-10-11T21:31:42.802Z,24.47
2022-10-11T21:34:09.150Z,24.55
2022-10-11T21:36:35.483Z,24.54
2022-10-11T21:39:01.826Z,24.55
2022-10-11T21:41:28.206Z,24.55
2022-10-11T21:43:54.550Z,24.54
2022-10-11T21:46:20.929Z,24.54
2022-10-11T21:48:47.282Z,24.52
2022-10-11T21:53:39.985Z,24.54
2022-10-11T21:56:06.331Z,24.53
2022-10-11T21:58:32.670Z,24.53
2022-10-11T22:00:59.015Z,24.53
2022-10-11T22:03:25.359Z,24.52
2022-10-11T22:05:51.711Z,24.54
2022-10-11T22:08:18.534Z,24.53
2022-10-11T22:10:44.884Z,24.52
2022-10-11T22:13:11.238Z,24.51
2022-10-11T22:15:37.588Z,24.51
2022-10-11T22:18:05.240Z,24.49
2022-10-11T22:20:30.289Z,24.51
2022-10-11T22:22:56.661Z,24.50
2022-10-11T22:25:23.003Z,24.50
2022-10-11T22:27:49.344Z,24.51
2022-10-11T22:30:15.693Z,24.50
2022-10-11T22:32:42.056Z,24.49
2022-10-11T22:35:08.415Z,24.48
2022-10-11T22:37:34.976Z,24.49
2022-10-11T22:40:01.092Z,24.49
2022-10-11T22:42:27.734Z,24.49
2022-10-11T22:44:53.797Z,24.48
2022-10-11T22:47:20.141Z,24.49
2022-10-11T22:49:46.488Z,24.47
2022-10-11T22:52:12.840Z,24.49
2022-10-11T22:54:39.181Z,24.48
2022-10-11T22:57:05.553Z,24.49
2022-10-11T22:59:31.901Z,24.48
2022-10-11T23:01:58.245Z,24.47
2022-10-11T23:04:24.584Z,24.48
2022-10-11T23:06:50.924Z,24.47
2022-10-11T23:09:17.268Z,24.46
2022-10-11T23:11:43.635Z,24.46
2022-10-11T23:14:09.980Z,24.46
2022-10-11T23:16:36.365Z,24.46
2022-10-11T23:19:02.710Z,24.47
2022-10-11T23:21:30.115Z,24.36
2022-10-11T23:23:55.416Z,24.36
2022-10-11T23:26:22.790Z,24.45
2022-10-11T23:28:49.176Z,24.45
2022-10-11T23:31:15.475Z,24.45
2022-10-11T23:33:41.836Z,24.44
2022-10-11T23:36:08.209Z,24.43
2022-10-11T23:38:34.563Z,24.44
2022-10-11T23:41:00.915Z,24.43
2022-10-11T23:43:27.261Z,24.43
2022-10-11T23:45:53.599Z,24.43
2022-10-11T23:48:19.935Z,24.43
2022-10-11T23:50:46.279Z,24.43
2022-10-11T23:53:12.676Z,24.42
2022-10-11T23:55:39.004Z,24.43
2022-10-11T23:58:05.360Z,24.43
